Time;durP1;ratioP1;P1;durP2;ratioP2;P2;SDS_P1;SDS_P2;PMS_P1;PMS_P2;Temp;Humidity;BMP_temperature;BMP_pressure;BME280_temperature;BME280_humidity;BME280_pressure;Samples;Min_cycle;Max_cycle;Signal;HPM_P1;HPM_P2
2023/07/04 00:00:34;;;;;;;10.93;4.80;;;13.20;90.10;;;;;;5013808;28;20700;-90
2023/07/04 00:03:00;;;;;;;11.47;4.73;;;13.20;90.30;;;;;;5013545;28;20280;-90
2023/07/04 00:05:25;;;;;;;8.03;5.00;;;13.20;90.40;;;;;;4995234;28;20208;-89
2023/07/04 00:07:51;;;;;;;11.90;4.97;;;13.20;90.70;;;;;;4995928;28;20224;-90
2023/07/04 00:10:17;;;;;;;14.77;5.50;;;13.20;90.50;;;;;;4995899;28;20177;-90
2023/07/04 00:12:43;;;;;;;15.40;5.80;;;13.20;90.60;;;;;;4995839;28;20207;-90
2023/07/04 00:15:09;;;;;;;6.63;4.57;;;13.20;90.40;;;;;;5013337;28;20177;-89
2023/07/04 00:17:35;;;;;;;15.63;5.33;;;13.30;90.30;;;;;;5013355;28;20235;-90
2023/07/04 00:20:01;;;;;;;14.20;5.17;;;13.30;90.30;;;;;;4995631;28;20173;-89
2023/07/04 00:22:26;;;;;;;7.70;4.93;;;13.30;90.40;;;;;;4995637;28;20181;-90
2023/07/04 00:24:52;;;;;;;10.47;5.43;;;13.30;90.30;;;;;;4995856;28;20170;-89
2023/07/04 00:27:19;;;;;;;17.87;6.43;;;13.30;90.20;;;;;;4995911;28;20185;-88
2023/07/04 00:29:45;;;;;;;12.13;5.37;;;13.30;90.20;;;;;;4995781;28;20613;-88
2023/07/04 00:32:12;;;;;;;9.53;5.87;;;13.30;90.40;;;;;;5013541;28;20204;-90
2023/07/04 00:34:38;;;;;;;9.43;5.43;;;13.30;90.50;;;;;;5013142;28;20204;-90
2023/07/04 00:37:04;;;;;;;10.00;5.03;;;13.30;90.40;;;;;;5012997;28;20197;-89
2023/07/04 00:39:29;;;;;;;5.70;4.87;;;13.30;90.40;;;;;;4995577;28;20235;-90
2023/07/04 00:41:55;;;;;;;8.63;5.47;;;13.30;90.40;;;;;;5013476;28;20179;-90
2023/07/04 00:44:23;;;;;;;15.37;5.73;;;13.30;90.60;;;;;;5013061;28;20241;-90
2023/07/04 00:47:06;;;;;;;15.77;5.43;;;13.20;90.40;;;;;;5013166;28;20252;-89
2023/07/04 00:49:42;;;;;;;10.50;5.40;;;13.20;90.60;;;;;;5013471;28;20188;-89
2023/07/04 00:52:08;;;;;;;9.50;5.20;;;13.20;90.40;;;;;;4995487;28;20181;-90
2023/07/04 00:54:52;;;;;;;10.43;4.90;;;13.20;90.50;;;;;;4995868;28;20573;-89
2023/07/04 00:57:23;;;;;;;13.70;5.57;;;13.20;90.60;;;;;;5013023;28;20186;-90
2023/07/04 00:59:57;;;;;;;7.03;4.73;;;13.10;90.50;;;;;;5013194;28;20158;-89
2023/07/04 01:02:26;;;;;;;10.67;4.83;;;13.10;90.30;;;;;;4995517;28;20173;-89
2023/07/04 01:04:53;;;;;;;10.87;5.07;;;13.10;90.30;;;;;;5013111;28;20599;-90
2023/07/04 01:07:24;;;;;;;11.20;5.23;;;13.20;90.20;;;;;;4995533;28;20192;-90
2023/07/04 01:09:55;;;;;;;9.77;5.27;;;13.10;90.40;;;;;;5013383;28;20212;-89
2023/07/04 01:12:21;;;;;;;11.33;4.83;;;13.00;90.70;;;;;;5013141;28;20519;-89
2023/07/04 01:14:47;;;;;;;9.67;4.97;;;12.90;90.80;;;;;;5013087;28;20205;-89
2023/07/04 01:17:13;;;;;;;13.90;5.00;;;12.90;90.80;;;;;;5014596;28;20228;-89
2023/07/04 01:19:39;;;;;;;13.13;5.27;;;12.80;90.80;;;;;;4998761;28;20212;-89
2023/07/04 01:22:27;;;;;;;13.33;4.73;;;12.80;90.50;;;;;;4998892;28;20655;-89
2023/07/04 01:25:20;;;;;;;14.13;5.20;;;12.80;90.40;;;;;;5016368;28;20713;-89
2023/07/04 01:27:47;;;;;;;9.83;4.73;;;12.80;90.40;;;;;;4998613;28;20221;-90
2023/07/04 01:30:14;;;;;;;10.87;4.30;;;12.80;90.70;;;;;;4998756;28;20173;-90
2023/07/04 01:32:41;;;;;;;11.77;4.73;;;12.80;90.80;;;;;;4998417;28;20178;-89
2023/07/04 01:35:08;;;;;;;10.27;4.57;;;12.80;90.80;;;;;;5016029;28;20249;-89
2023/07/04 01:37:33;;;;;;;12.93;4.80;;;12.70;90.70;;;;;;4998544;28;20259;-90
2023/07/04 01:40:00;;;;;;;7.27;3.90;;;12.80;90.80;;;;;;4999296;28;20200;-89
2023/07/04 01:42:31;;;;;;;17.97;4.60;;;12.70;90.90;;;;;;5015762;28;20181;-88
2023/07/04 01:44:58;;;;;;;12.80;4.93;;;12.70;90.80;;;;;;4998254;28;20169;-89
2023/07/04 01:47:24;;;;;;;13.67;4.93;;;12.70;90.70;;;;;;5015777;28;20224;-89
2023/07/04 01:49:49;;;;;;;11.93;4.73;;;12.70;90.60;;;;;;5016145;28;20570;-89
2023/07/04 01:52:15;;;;;;;11.80;4.47;;;12.70;90.80;;;;;;5016282;28;20256;-89
2023/07/04 01:54:40;;;;;;;9.83;4.30;;;12.70;91.00;;;;;;4998131;28;20300;-90
2023/07/04 01:57:10;;;;;;;9.70;4.63;;;12.70;91.00;;;;;;4998222;28;20197;-89
2023/07/04 01:59:36;;;;;;;12.50;4.30;;;12.70;91.00;;;;;;5015582;28;20288;-89
2023/07/04 02:02:02;;;;;;;8.97;3.67;;;12.70;90.70;;;;;;4997952;28;20521;-89
2023/07/04 02:04:27;;;;;;;10.07;4.30;;;12.70;90.70;;;;;;4998190;28;20248;-88
2023/07/04 02:06:53;;;;;;;12.63;4.07;;;12.60;90.70;;;;;;4998038;28;20175;-89
2023/07/04 02:09:18;;;;;;;9.03;4.30;;;12.70;90.90;;;;;;4997924;28;20174;-89
2023/07/04 02:11:45;;;;;;;12.37;4.20;;;12.70;90.90;;;;;;5015475;28;20216;-90
2023/07/04 02:14:11;;;;;;;15.07;4.57;;;12.60;91.00;;;;;;4997653;28;20571;-89
2023/07/04 02:16:36;;;;;;;14.27;4.83;;;12.60;91.00;;;;;;4997663;28;20181;-89
2023/07/04 02:19:02;;;;;;;10.17;4.27;;;12.50;91.00;;;;;;4997568;28;20208;-89
2023/07/04 02:21:28;;;;;;;13.03;4.27;;;12.50;91.00;;;;;;4998048;28;20676;-90
2023/07/04 02:23:54;;;;;;;13.97;4.87;;;12.50;91.10;;;;;;5015287;28;20727;-89
2023/07/04 02:26:20;;;;;;;9.90;4.30;;;12.50;90.90;;;;;;4997543;28;20174;-89
2023/07/04 02:28:45;;;;;;;11.23;4.60;;;12.50;91.10;;;;;;5014563;28;20177;-89
2023/07/04 02:31:13;;;;;;;9.67;4.43;;;12.40;91.30;;;;;;5014853;28;20177;-90
2023/07/04 02:33:39;;;;;;;10.00;4.07;;;12.50;91.30;;;;;;4997435;28;20220;-89
2023/07/04 02:36:06;;;;;;;15.00;4.93;;;12.40;91.30;;;;;;5015378;28;20645;-89
2023/07/04 02:38:32;;;;;;;13.97;4.17;;;12.40;91.30;;;;;;4997358;28;20206;-89
2023/07/04 02:40:58;;;;;;;7.33;3.60;;;12.30;91.10;;;;;;4997266;28;20204;-89
2023/07/04 02:43:23;;;;;;;8.90;3.93;;;12.40;91.20;;;;;;4997443;28;20251;-90
2023/07/04 02:45:49;;;;;;;8.70;3.47;;;12.40;91.10;;;;;;4997181;28;20169;-89
2023/07/04 02:48:14;;;;;;;8.80;4.50;;;12.30;91.30;;;;;;5014680;28;20178;-89
2023/07/04 02:50:40;;;;;;;8.80;4.23;;;12.40;91.30;;;;;;4997116;28;20645;-90
2023/07/04 02:53:05;;;;;;;9.90;4.13;;;12.30;91.60;;;;;;5014300;28;20684;-89
2023/07/04 02:55:31;;;;;;;15.53;4.73;;;12.30;91.80;;;;;;5014482;28;20169;-89
2023/07/04 02:57:57;;;;;;;12.70;4.30;;;12.30;91.90;;;;;;4996924;28;20194;-89
2023/07/04 03:00:22;;;;;;;11.57;4.23;;;12.20;91.90;;;;;;4997032;28;20235;-89
2023/07/04 03:02:48;;;;;;;12.67;5.60;;;12.20;92.10;;;;;;4996801;28;20602;-89
2023/07/04 03:05:14;;;;;;;17.87;4.60;;;12.20;92.30;;;;;;4996710;28;20177;-89
2023/07/04 03:07:39;;;;;;;12.13;4.30;;;12.20;92.50;;;;;;4997019;28;20178;-89
2023/07/04 03:10:05;;;;;;;9.93;4.77;;;12.10;92.60;;;;;;4996667;28;20189;-89
2023/07/04 03:12:31;;;;;;;12.33;4.77;;;12.20;92.70;;;;;;5014175;28;20550;-89
2023/07/04 03:14:56;;;;;;;10.13;4.60;;;12.20;92.70;;;;;;5014229;28;20177;-89
2023/07/04 03:17:24;;;;;;;7.53;4.37;;;12.20;92.70;;;;;;5014361;28;20204;-90
2023/07/04 03:19:50;;;;;;;11.97;4.90;;;12.20;92.60;;;;;;4996693;28;20177;-89
2023/07/04 03:22:15;;;;;;;14.30;5.30;;;12.20;92.70;;;;;;4996442;28;20699;-89
2023/07/04 03:24:41;;;;;;;9.57;4.07;;;12.20;92.70;;;;;;5014030;28;20197;-89
2023/07/04 03:27:06;;;;;;;11.87;4.90;;;12.20;92.60;;;;;;4996466;28;20189;-89
2023/07/04 03:29:32;;;;;;;8.97;4.57;;;12.30;92.70;;;;;;5014658;28;20176;-89
2023/07/04 03:31:57;;;;;;;12.87;4.60;;;12.30;92.70;;;;;;4996816;28;20558;-89
2023/07/04 03:34:23;;;;;;;12.43;4.87;;;12.30;92.60;;;;;;5013855;28;20223;-89
2023/07/04 03:36:48;;;;;;;8.67;4.33;;;12.20;92.60;;;;;;5014052;28;20180;-90
2023/07/04 03:39:14;;;;;;;15.40;4.63;;;12.20;92.60;;;;;;5013575;28;20169;-90
2023/07/04 03:41:39;;;;;;;12.33;4.80;;;12.20;92.70;;;;;;5013263;28;20256;-89
2023/07/04 03:44:05;;;;;;;8.30;4.97;;;12.20;92.60;;;;;;4996217;28;20280;-90
2023/07/04 03:46:30;;;;;;;15.27;4.50;;;12.30;92.70;;;;;;4996505;28;20188;-89
2023/07/04 03:48:56;;;;;;;11.63;4.90;;;12.30;92.70;;;;;;5013933;28;20177;-89
2023/07/04 03:51:22;;;;;;;12.30;4.90;;;12.30;92.70;;;;;;4996264;28;20184;-89
2023/07/04 03:53:48;;;;;;;11.67;4.47;;;12.30;92.50;;;;;;4996197;28;20213;-90
2023/07/04 03:56:14;;;;;;;10.50;4.70;;;12.30;92.50;;;;;;5014067;28;20185;-89
2023/07/04 03:58:40;;;;;;;11.87;4.40;;;12.30;92.40;;;;;;4995977;28;20201;-89
2023/07/04 04:01:06;;;;;;;9.13;4.33;;;12.30;92.50;;;;;;5013791;28;20177;-89
2023/07/04 04:03:37;;;;;;;10.07;4.70;;;12.40;92.40;;;;;;5013620;28;20324;-89
2023/07/04 04:06:07;;;;;;;11.80;4.67;;;12.30;92.40;;;;;;4995906;28;20169;-89
2023/07/04 04:08:33;;;;;;;19.30;5.90;;;12.50;92.40;;;;;;5013579;28;20168;-89
2023/07/04 04:10:59;;;;;;;11.13;4.80;;;12.50;92.30;;;;;;5013480;28;20173;-90
2023/07/04 04:13:25;;;;;;;9.03;6.03;;;12.60;92.30;;;;;;4996071;28;20215;-89
2023/07/04 04:15:51;;;;;;;10.53;5.20;;;12.60;92.10;;;;;;5013985;28;20173;-89
2023/07/04 04:18:17;;;;;;;12.07;5.43;;;12.70;92.10;;;;;;5013284;28;20200;-89
2023/07/04 04:20:43;;;;;;;16.17;5.33;;;12.70;91.90;;;;;;5013362;28;20264;-90
2023/07/04 04:23:09;;;;;;;12.13;4.97;;;12.80;91.90;;;;;;5013359;28;20235;-90
2023/07/04 04:25:38;;;;;;;9.57;4.80;;;12.80;91.90;;;;;;4995678;28;20182;-90
2023/07/04 04:28:04;;;;;;;12.10;5.57;;;12.80;91.80;;;;;;5013319;28;20199;-89
2023/07/04 04:30:30;;;;;;;18.13;5.63;;;12.80;91.80;;;;;;4996011;28;20649;-89
2023/07/04 04:32:55;;;;;;;10.83;4.70;;;12.80;91.80;;;;;;4995686;28;20236;-90
2023/07/04 04:35:21;;;;;;;13.13;5.23;;;12.70;91.70;;;;;;5013372;28;20189;-90
2023/07/04 04:37:47;;;;;;;9.73;5.13;;;12.80;91.80;;;;;;5013238;28;20231;-89
2023/07/04 04:40:13;;;;;;;13.73;7.17;;;12.80;91.90;;;;;;5013173;28;20195;-90
2023/07/04 04:42:39;;;;;;;15.47;8.20;;;12.80;91.90;;;;;;5013320;28;20174;-89
2023/07/04 04:45:07;;;;;;;14.00;9.40;;;12.80;91.80;;;;;;5013124;28;20173;-90
2023/07/04 04:47:33;;;;;;;12.37;9.37;;;12.90;91.90;;;;;;4995624;28;20564;-90
2023/07/04 04:50:01;;;;;;;17.87;9.00;;;12.90;91.90;;;;;;4995526;28;20182;-90
2023/07/04 04:52:31;;;;;;;11.10;7.50;;;12.90;91.70;;;;;;5015499;28;20223;-89
2023/07/04 04:54:57;;;;;;;11.03;5.60;;;12.90;91.60;;;;;;4999755;28;20200;-89
2023/07/04 04:57:23;;;;;;;13.43;5.67;;;13.00;91.80;;;;;;5017053;28;20189;-89
2023/07/04 04:59:50;;;;;;;13.20;5.50;;;13.00;91.70;;;;;;4999537;28;20181;-90
2023/07/04 05:02:16;;;;;;;18.50;6.13;;;13.10;91.70;;;;;;4999098;28;20562;-90
2023/07/04 05:04:41;;;;;;;10.80;5.90;;;13.20;91.60;;;;;;4999141;28;20197;-87
2023/07/04 05:07:07;;;;;;;11.53;5.77;;;13.20;91.50;;;;;;5017700;28;20254;-92
2023/07/04 05:09:34;;;;;;;14.80;6.03;;;13.30;91.40;;;;;;5016707;28;20173;-90
2023/07/04 05:12:01;;;;;;;9.63;5.53;;;13.20;91.10;;;;;;4999395;28;20195;-90
2023/07/04 05:14:27;;;;;;;13.67;6.10;;;13.30;91.00;;;;;;5016787;28;20244;-89
2023/07/04 05:16:52;;;;;;;11.00;5.63;;;13.30;91.00;;;;;;5000103;28;20177;-90
2023/07/04 05:19:18;;;;;;;15.37;6.03;;;13.30;91.20;;;;;;4999452;28;20170;-91
2023/07/04 05:21:43;;;;;;;14.70;6.40;;;13.40;91.10;;;;;;5016500;28;20176;-90
2023/07/04 05:24:09;;;;;;;15.97;6.73;;;13.50;91.10;;;;;;4998881;28;20197;-90
2023/07/04 05:26:36;;;;;;;13.77;6.70;;;13.50;90.90;;;;;;4998913;28;20174;-90
2023/07/04 05:29:04;;;;;;;12.00;6.00;;;13.60;90.90;;;;;;4998796;28;20212;-91
2023/07/04 05:31:31;;;;;;;14.83;6.20;;;13.60;90.50;;;;;;4999282;28;20173;-91
2023/07/04 05:33:57;;;;;;;13.27;5.97;;;13.60;90.40;;;;;;5016347;28;20196;-90
2023/07/04 05:36:25;;;;;;;15.63;6.10;;;13.70;90.40;;;;;;4998860;28;20177;-91
2023/07/04 05:38:53;;;;;;;18.23;6.07;;;13.80;90.20;;;;;;5016886;28;20672;-92
2023/07/04 05:41:21;;;;;;;11.93;6.17;;;13.80;90.20;;;;;;4998544;28;20189;-92
2023/07/04 05:43:47;;;;;;;15.47;6.50;;;13.90;89.90;;;;;;5016205;28;20220;-90
2023/07/04 05:46:14;;;;;;;14.80;6.37;;;14.00;89.90;;;;;;5016138;28;20170;-90
2023/07/04 05:48:41;;;;;;;20.47;7.20;;;14.10;89.80;;;;;;5015821;28;20204;-89
2023/07/04 05:51:09;;;;;;;11.23;6.50;;;14.00;89.30;;;;;;5000097;28;20177;-91
2023/07/04 05:53:37;;;;;;;7.27;5.40;;;14.10;88.80;;;;;;5016559;28;20297;-89
2023/07/04 05:56:27;;;;;;;21.93;6.63;;;14.20;88.70;;;;;;5000508;28;20601;-89
2023/07/04 05:58:55;;;;;;;12.67;6.07;;;14.20;88.90;;;;;;5007328;28;20278;-89
2023/07/04 06:01:42;;;;;;;10.23;6.27;;;14.30;88.50;;;;;;5017138;28;20734;-88
2023/07/04 06:04:09;;;;;;;14.17;6.70;;;14.40;88.30;;;;;;4998915;28;20193;-89
2023/07/04 06:06:40;;;;;;;13.20;6.70;;;14.50;87.90;;;;;;5016832;28;20173;-89
2023/07/04 06:09:09;;;;;;;11.67;6.47;;;14.60;87.30;;;;;;5016913;28;20158;-89
2023/07/04 06:11:38;;;;;;;9.73;6.23;;;14.60;87.30;;;;;;5016966;28;20576;-89
2023/07/04 06:14:04;;;;;;;8.73;6.13;;;14.60;87.20;;;;;;5016764;28;20197;-89
2023/07/04 06:16:30;;;;;;;17.80;8.03;;;14.80;87.90;;;;;;4999613;28;20177;-89
2023/07/04 06:18:56;;;;;;;12.57;6.37;;;14.80;87.00;;;;;;4999062;28;20577;-89
2023/07/04 06:21:23;;;;;;;17.73;6.60;;;14.80;86.00;;;;;;4999412;28;20178;-89
2023/07/04 06:23:50;;;;;;;13.03;6.30;;;14.90;86.10;;;;;;5016574;28;20189;-89
2023/07/04 06:26:16;;;;;;;11.27;6.27;;;14.90;86.10;;;;;;5016724;28;20180;-89
2023/07/04 06:28:42;;;;;;;13.37;7.30;;;15.00;85.70;;;;;;4999007;28;20177;-89
2023/07/04 06:31:14;;;;;;;10.07;7.57;;;15.10;85.90;;;;;;5016503;28;20177;-88
2023/07/04 06:33:40;;;;;;;11.35;7.03;;;15.20;85.10;;;;;;5016606;28;20204;-89
2023/07/04 06:36:13;;;;;;;13.00;7.50;;;15.40;85.40;;;;;;5016715;28;20174;-89
2023/07/04 06:38:39;;;;;;;8.50;7.00;;;15.50;85.00;;;;;;5016975;28;20189;-89
2023/07/04 06:41:07;;;;;;;9.53;6.67;;;15.40;84.40;;;;;;4998955;28;20224;-89
2023/07/04 06:43:33;;;;;;;11.93;6.75;;;15.30;84.70;;;;;;4998704;28;20268;-89
2023/07/04 06:45:59;;;;;;;12.13;7.03;;;15.40;84.20;;;;;;5016687;28;20173;-89
2023/07/04 06:48:26;;;;;;;15.15;7.18;;;15.50;84.30;;;;;;4998994;28;20173;-87
2023/07/04 06:50:59;;;;;;;11.25;8.13;;;15.30;84.10;;;;;;4998042;28;20244;-88
2023/07/04 06:53:25;;;;;;;13.13;8.20;;;15.30;84.10;;;;;;4997823;28;20213;-87
2023/07/04 06:55:51;;;;;;;14.00;7.25;;;15.40;84.40;;;;;;4998069;28;20591;-87
2023/07/04 06:58:17;;;;;;;9.67;7.30;;;15.40;84.70;;;;;;5015093;28;20252;-87
2023/07/04 07:00:42;;;;;;;12.15;7.03;;;15.30;84.00;;;;;;5015561;28;20525;-87
2023/07/04 07:03:08;;;;;;;10.57;7.95;;;15.60;84.60;;;;;;5015274;28;20197;-87
2023/07/04 07:05:38;;;;;;;10.27;6.70;;;15.70;83.50;;;;;;4997607;28;20174;-87
2023/07/04 07:08:04;;;;;;;7.40;6.63;;;15.60;83.70;;;;;;4997756;28;20203;-87
2023/07/04 07:10:31;;;;;;;14.70;7.15;;;15.70;82.90;;;;;;5015143;28;20173;-87
2023/07/04 07:12:57;;;;;;;8.90;6.88;;;15.70;82.90;;;;;;5016282;28;20229;-87
2023/07/04 07:15:22;;;;;;;17.70;8.00;;;16.10;84.10;;;;;;5014622;28;20263;-87
2023/07/04 07:17:48;;;;;;;10.63;6.80;;;16.00;81.90;;;;;;4997720;28;20295;-88
2023/07/04 07:20:13;;;;;;;13.23;8.25;;;16.20;82.70;;;;;;4997498;28;20673;-87
2023/07/04 07:22:39;;;;;;;10.63;7.97;;;16.30;82.50;;;;;;4997362;28;20177;-87
2023/07/04 07:25:05;;;;;;;15.68;9.27;;;16.20;82.00;;;;;;5015167;28;20177;-87
2023/07/04 07:27:31;;;;;;;10.50;8.18;;;16.00;81.40;;;;;;4997469;28;20320;-87
2023/07/04 07:29:56;;;;;;;16.55;8.20;;;16.00;82.00;;;;;;4996980;28;20217;-87
2023/07/04 07:32:22;;;;;;;8.70;7.55;;;15.90;81.60;;;;;;4997061;28;20271;-87
2023/07/04 07:34:47;;;;;;;12.15;7.30;;;15.80;81.50;;;;;;4996742;28;20208;-87
2023/07/04 07:37:13;;;;;;;14.75;7.55;;;15.80;81.30;;;;;;4996947;28;20184;-87
2023/07/04 07:39:40;;;;;;;12.00;7.95;;;15.90;81.90;;;;;;5014431;28;20176;-87
2023/07/04 07:42:06;;;;;;;8.52;7.07;;;15.80;81.00;;;;;;4996893;28;20368;-87
2023/07/04 07:44:32;;;;;;;14.77;7.80;;;15.80;81.50;;;;;;5014113;28;20193;-87
2023/07/04 07:46:57;;;;;;;12.70;7.40;;;15.80;81.30;;;;;;5014578;28;20174;-87
2023/07/04 07:49:23;;;;;;;8.63;7.07;;;15.90;80.40;;;;;;4996363;28;20235;-86
2023/07/04 07:51:48;;;;;;;14.05;8.27;;;16.00;79.80;;;;;;5013967;28;20615;-86
2023/07/04 07:54:14;;;;;;;11.90;7.50;;;16.00;79.10;;;;;;4996348;28;20581;-86
2023/07/04 07:56:44;;;;;;;12.80;7.60;;;16.00;79.00;;;;;;5013933;28;20212;-87
2023/07/04 07:59:10;;;;;;;10.63;8.50;;;16.10;79.40;;;;;;4996638;28;20201;-87
2023/07/04 08:01:37;;;;;;;9.57;8.48;;;16.10;77.50;;;;;;4998337;28;20641;-87
2023/07/04 08:04:04;;;;;;;10.98;8.43;;;16.20;79.00;;;;;;5014907;28;20189;-86
2023/07/04 08:06:34;;;;;;;12.13;7.88;;;16.20;79.30;;;;;;4997211;28;20204;-86
2023/07/04 08:09:01;;;;;;;13.27;8.18;;;16.10;79.40;;;;;;4996786;28;20189;-87
2023/07/04 08:11:28;;;;;;;9.90;8.90;;;16.10;79.00;;;;;;4996027;28;20173;-85
2023/07/04 08:13:55;;;;;;;13.77;8.35;;;16.10;78.10;;;;;;5014196;28;20591;-87
2023/07/04 08:16:24;;;;;;;8.40;7.60;;;16.30;78.80;;;;;;4996579;28;20177;-87
2023/07/04 08:18:49;;;;;;;10.63;9.48;;;16.50;77.70;;;;;;5014351;28;20193;-87
2023/07/04 08:21:16;;;;;;;9.73;8.80;;;16.60;76.00;;;;;;5013900;28;20583;-87
2023/07/04 08:23:41;;;;;;;13.30;10.27;;;16.40;75.20;;;;;;4996114;28;20243;-87
2023/07/04 08:26:07;;;;;;;14.00;12.60;;;16.60;74.70;;;;;;5014318;28;20173;-87
2023/07/04 08:28:32;;;;;;;11.13;10.13;;;16.70;73.50;;;;;;5019780;28;20181;-88
2023/07/04 08:31:05;;;;;;;11.02;9.70;;;16.60;74.60;;;;;;5001609;28;20260;-87
2023/07/04 08:33:32;;;;;;;12.55;11.23;;;16.50;75.00;;;;;;5001207;28;20200;-88
2023/07/04 08:35:58;;;;;;;11.10;10.10;;;16.60;74.30;;;;;;5019157;28;20179;-88
2023/07/04 08:38:24;;;;;;;11.75;10.80;;;17.00;74.60;;;;;;5000914;28;20205;-87
2023/07/04 08:40:50;;;;;;;10.93;9.90;;;17.20;74.10;;;;;;5000999;28;20209;-86
2023/07/04 08:43:46;;;;;;;13.65;11.60;;;17.20;74.70;;;;;;5018829;28;20204;-88
2023/07/04 08:46:14;;;;;;;11.80;10.27;;;17.00;72.90;;;;;;4978917;28;20268;-87
2023/07/04 08:48:41;;;;;;;11.48;10.40;;;16.90;73.50;;;;;;5019421;28;20170;-88
2023/07/04 08:51:13;;;;;;;11.18;10.23;;;16.80;74.30;;;;;;5001904;28;20292;-87
2023/07/04 08:53:41;;;;;;;11.43;10.25;;;16.60;73.50;;;;;;5019326;28;20591;-87
2023/07/04 08:56:21;;;;;;;9.60;7.50;;;16.40;74.80;;;;;;5002327;28;20173;-88
2023/07/04 08:59:08;;;;;;;10.82;6.85;;;15.90;79.00;;;;;;5001538;28;20284;-88
2023/07/04 09:01:58;;;;;;;10.33;7.47;;;13.90;83.40;;;;;;5003207;28;20596;-88
2023/07/04 09:04:47;;;;;;;8.73;6.37;;;13.80;83.90;;;;;;5020313;28;20190;-88
2023/07/04 09:07:41;;;;;;;8.73;6.57;;;13.90;84.60;;;;;;5003468;28;20166;-88
2023/07/04 09:10:16;;;;;;;7.70;5.70;;;14.20;85.50;;;;;;5020475;28;20208;-88
2023/07/04 09:12:42;;;;;;;10.33;5.90;;;14.40;87.00;;;;;;5001538;28;20628;-89
2023/07/04 09:15:26;;;;;;;7.33;5.27;;;14.40;86.80;;;;;;5000833;28;20627;-87
2023/07/04 09:18:14;;;;;;;11.03;5.73;;;14.70;87.20;;;;;;5017116;28;20220;-86
2023/07/04 09:20:49;;;;;;;9.50;4.90;;;15.20;87.10;;;;;;5016814;28;20303;-87
2023/07/04 09:23:20;;;;;;;7.47;4.90;;;15.70;87.10;;;;;;4999430;28;20205;-87
2023/07/04 09:25:45;;;;;;;10.27;5.60;;;16.30;87.70;;;;;;5000779;28;20625;-87
2023/07/04 09:28:11;;;;;;;9.18;5.40;;;16.30;85.70;;;;;;5017566;28;20231;-89
2023/07/04 09:30:38;;;;;;;9.00;6.20;;;16.30;85.50;;;;;;5000264;28;20181;-88
2023/07/04 09:33:04;;;;;;;10.82;6.97;;;16.40;84.30;;;;;;4999837;28;20207;-86
2023/07/04 09:35:31;;;;;;;7.55;6.35;;;16.40;83.20;;;;;;4998909;28;20268;-86
2023/07/04 09:38:01;;;;;;;8.77;7.93;;;16.70;83.10;;;;;;4998529;28;20303;-87
2023/07/04 09:40:41;;;;;;;7.80;7.20;;;16.70;82.60;;;;;;5016170;28;20177;-86
2023/07/04 09:43:08;;;;;;;10.05;8.27;;;16.90;82.10;;;;;;4998690;28;20197;-85
2023/07/04 09:45:33;;;;;;;16.40;9.80;;;17.10;79.80;;;;;;5016612;28;20182;-87
2023/07/04 09:48:00;;;;;;;10.57;9.68;;;17.10;76.90;;;;;;5016582;28;20182;-87
2023/07/04 09:50:31;;;;;;;9.93;9.13;;;16.80;78.60;;;;;;4998541;28;20578;-86
2023/07/04 09:53:18;;;;;;;11.55;10.52;;;16.80;78.60;;;;;;4998386;28;20209;-86
2023/07/04 09:56:01;;;;;;;10.85;9.82;;;16.90;75.70;;;;;;4998569;28;20181;-87
2023/07/04 09:58:28;;;;;;;9.75;8.88;;;17.20;77.20;;;;;;5016364;28;20553;-87
2023/07/04 10:01:21;;;;;;;11.27;10.10;;;17.30;77.20;;;;;;5016093;28;20166;-87
2023/07/04 10:03:48;;;;;;;10.90;10.00;;;17.20;76.00;;;;;;5013326;28;20209;-87
2023/07/04 10:06:29;;;;;;;11.63;10.40;;;17.00;75.50;;;;;;4998349;28;20180;-87
2023/07/04 10:08:56;;;;;;;12.18;10.98;;;16.80;75.30;;;;;;5016055;28;20633;-86
2023/07/04 10:11:29;;;;;;;12.68;10.75;;;16.60;74.20;;;;;;4999039;28;20263;-86
2023/07/04 10:14:14;;;;;;;12.35;11.27;;;16.50;76.10;;;;;;4998141;28;20201;-87
2023/07/04 10:16:50;;;;;;;12.05;11.05;;;16.50;75.30;;;;;;4998314;28;20596;-86
2023/07/04 10:19:22;;;;;;;12.68;11.48;;;16.90;75.30;;;;;;5015469;28;20331;-86
2023/07/04 10:21:53;;;;;;;12.63;11.38;;;17.20;73.20;;;;;;4998091;28;20168;-86
2023/07/04 10:24:20;;;;;;;13.50;12.40;;;17.30;71.80;;;;;;4998054;28;20215;-86
2023/07/04 10:26:56;;;;;;;12.98;11.93;;;17.50;72.40;;;;;;4998353;28;20173;-87
2023/07/04 10:29:31;;;;;;;11.20;10.32;;;17.50;72.80;;;;;;4998114;28;20728;-86
2023/07/04 10:32:02;;;;;;;13.10;12.15;;;17.60;74.20;;;;;;5015867;28;20189;-87
2023/07/04 10:34:30;;;;;;;14.45;13.07;;;16.70;70.00;;;;;;4998077;28;20193;-86
2023/07/04 10:36:56;;;;;;;14.20;13.10;;;15.50;69.80;;;;;;5015845;28;20204;-87
2023/07/04 10:39:24;;;;;;;15.40;13.98;;;14.90;70.00;;;;;;4997495;28;20681;-86
2023/07/04 10:42:04;;;;;;;13.48;12.57;;;14.50;72.00;;;;;;5015425;28;20176;-87
2023/07/04 10:44:33;;;;;;;13.00;12.10;;;14.40;73.20;;;;;;4997885;28;20208;-87
2023/07/04 10:47:05;;;;;;;12.75;11.38;;;14.40;73.90;;;;;;5015354;28;20169;-87
2023/07/04 10:49:39;;;;;;;12.63;11.77;;;14.50;74.80;;;;;;5015074;28;20181;-86
2023/07/04 10:52:15;;;;;;;11.73;10.77;;;14.50;74.10;;;;;;4999748;28;20172;-87
2023/07/04 10:54:41;;;;;;;11.37;10.37;;;14.00;76.40;;;;;;5019189;28;20201;-86
2023/07/04 10:57:45;;;;;;;10.20;9.50;;;13.60;78.10;;;;;;5019129;28;20695;-87
2023/07/04 11:00:40;;;;;;;8.73;7.93;;;14.10;81.10;;;;;;5000750;28;20177;-87
2023/07/04 11:03:21;;;;;;;8.63;7.97;;;14.10;79.20;;;;;;5018364;28;20248;-87
2023/07/04 11:05:54;;;;;;;9.63;8.90;;;14.00;79.80;;;;;;5017572;28;20200;-86
2023/07/04 11:08:22;;;;;;;9.70;9.00;;;13.90;78.70;;;;;;5018256;28;20173;-86
2023/07/04 11:10:56;;;;;;;9.57;8.97;;;13.90;77.90;;;;;;5017392;28;20619;-87
2023/07/04 11:13:24;;;;;;;9.57;8.97;;;13.90;77.50;;;;;;5017250;28;20206;-86
2023/07/04 11:16:03;;;;;;;9.40;8.70;;;14.30;77.50;;;;;;4999615;28;20212;-86
2023/07/04 11:18:32;;;;;;;10.00;9.30;;;14.40;75.70;;;;;;4999408;28;20292;-87
2023/07/04 11:21:13;;;;;;;9.60;8.90;;;14.30;76.60;;;;;;5017773;28;20174;-87
2023/07/04 11:23:53;;;;;;;9.63;8.83;;;14.30;77.70;;;;;;4999270;28;20200;-87
2023/07/04 11:26:40;;;;;;;10.73;9.90;;;14.00;78.20;;;;;;5017995;28;20172;-87
2023/07/04 11:29:08;;;;;;;11.40;10.30;;;13.80;77.50;;;;;;4999913;28;20177;-86
2023/07/04 11:31:54;;;;;;;10.93;9.80;;;13.70;75.30;;;;;;4999320;28;20181;-87
2023/07/04 11:34:19;;;;;;;10.10;9.03;;;13.50;75.70;;;;;;5017658;28;20205;-87
2023/07/04 11:36:55;;;;;;;9.20;8.60;;;13.40;77.30;;;;;;4999266;28;20328;-87
2023/07/04 11:39:35;;;;;;;9.17;8.60;;;13.40;78.30;;;;;;4999696;28;20205;-86
2023/07/04 11:42:44;;;;;;;10.50;9.30;;;13.60;78.80;;;;;;4998257;28;20171;-86
2023/07/04 11:45:21;;;;;;;9.27;8.40;;;13.90;78.80;;;;;;4991254;28;20215;-87
2023/07/04 11:47:51;;;;;;;7.73;7.23;;;14.60;78.40;;;;;;4998111;28;20177;-87
2023/07/04 11:50:20;;;;;;;8.83;8.07;;;15.30;78.70;;;;;;5016118;28;20649;-87
2023/07/04 11:52:55;;;;;;;9.43;8.75;;;15.70;76.30;;;;;;4999311;28;20569;-88
2023/07/04 11:55:31;;;;;;;11.05;10.20;;;16.20;75.90;;;;;;5015963;28;20157;-88
2023/07/04 11:58:09;;;;;;;11.48;10.48;;;16.40;73.50;;;;;;4996924;28;20287;-86
2023/07/04 12:00:38;;;;;;;12.15;11.15;;;16.40;72.40;;;;;;4996815;28;20264;-87
2023/07/04 12:03:21;;;;;;;12.55;11.73;;;16.50;72.50;;;;;;5014593;28;20213;-87
2023/07/04 12:05:58;;;;;;;12.43;11.63;;;16.70;70.30;;;;;;4997093;28;20177;-87
2023/07/04 12:08:30;;;;;;;10.82;10.13;;;16.40;71.30;;;;;;5014274;28;20185;-87
2023/07/04 12:10:59;;;;;;;10.70;9.90;;;15.90;72.90;;;;;;5014077;28;20180;-87
2023/07/04 12:13:29;;;;;;;21.50;10.50;;;15.70;74.40;;;;;;5013918;28;20197;-85
2023/07/04 12:15:57;;;;;;;10.15;9.18;;;14.70;74.10;;;;;;5014171;28;20601;-86
2023/07/04 12:18:26;;;;;;;9.33;8.30;;;13.80;79.10;;;;;;5017196;28;20585;-86
2023/07/04 12:20:52;;;;;;;7.90;7.10;;;13.00;82.20;;;;;;4996714;28;20179;-87
2023/07/04 12:23:18;;;;;;;14.60;8.27;;;12.50;84.30;;;;;;5013940;28;20186;-87
2023/07/04 12:25:47;;;;;;;7.73;7.00;;;12.40;85.50;;;;;;4997136;28;20231;-87
2023/07/04 12:28:15;;;;;;;6.90;6.20;;;12.50;85.20;;;;;;5014948;28;20174;-87
2023/07/04 12:30:52;;;;;;;6.47;5.90;;;12.60;86.00;;;;;;4997225;28;20264;-87
2023/07/04 12:33:24;;;;;;;7.17;6.43;;;12.60;85.20;;;;;;4997171;28;20255;-88
2023/07/04 12:35:57;;;;;;;6.90;6.30;;;12.70;85.70;;;;;;5014307;28;20166;-87
2023/07/04 12:38:25;;;;;;;6.93;6.53;;;12.30;86.10;;;;;;4997349;28;20276;-87
2023/07/04 12:40:51;;;;;;;6.97;6.57;;;12.20;85.20;;;;;;4997494;28;20173;-87
2023/07/04 12:43:17;;;;;;;6.83;6.33;;;12.30;85.20;;;;;;4996876;28;20197;-87
2023/07/04 12:45:43;;;;;;;5.53;5.13;;;12.50;85.60;;;;;;5014382;28;20642;-87
2023/07/04 12:48:10;;;;;;;5.13;4.73;;;12.20;86.80;;;;;;5014253;28;20200;-86